createdAt,value
2018-03-29T00:00:37.411Z,1.62
2018-03-29T00:01:37.422Z,1.65
2018-03-29T00:02:37.429Z,1.68
2018-03-29T00:03:37.436Z,1.69
2018-03-29T00:04:37.436Z,1.69
2018-03-29T00:05:37.443Z,1.63
2018-03-29T00:06:37.451Z,1.63
2018-03-29T00:07:37.462Z,1.65
2018-03-29T00:08:37.463Z,1.66
2018-03-29T00:09:37.467Z,1.59
2018-03-29T00:10:37.475Z,1.63
2018-03-29T00:11:37.487Z,1.66
2018-03-29T00:12:37.495Z,1.69
2018-03-29T00:13:37.495Z,1.68
2018-03-29T00:14:37.502Z,1.60
2018-03-29T00:15:37.508Z,1.55
2018-03-29T00:16:37.517Z,1.55
2018-03-29T00:17:37.521Z,1.66
2018-03-29T00:18:37.533Z,1.60
2018-03-29T00:19:37.539Z,1.62
2018-03-29T00:20:37.540Z,1.60
2018-03-29T00:21:37.553Z,1.59
2018-03-29T00:22:37.559Z,1.60
2018-03-29T00:23:37.565Z,1.69
2018-03-29T00:24:37.566Z,1.65
2018-03-29T00:25:37.578Z,1.73
2018-03-29T00:26:37.586Z,1.65
2018-03-29T00:27:37.592Z,1.68
2018-03-29T00:28:37.599Z,1.70
2018-03-29T00:29:37.600Z,1.73
2018-03-29T00:30:37.610Z,1.73
2018-03-29T00:31:37.612Z,1.69
2018-03-29T00:32:37.623Z,1.72
2018-03-29T00:33:37.631Z,1.69
2018-03-29T00:34:37.638Z,1.66
2018-03-29T00:35:37.644Z,1.68
2018-03-29T00:36:37.646Z,1.72
2018-03-29T00:37:37.657Z,1.69
2018-03-29T00:38:37.658Z,1.70
2018-03-29T00:39:37.664Z,1.72
2018-03-29T00:40:37.675Z,1.68
2018-03-29T00:41:37.682Z,1.63
2018-03-29T00:42:37.684Z,1.50
2018-03-29T00:43:37.690Z,1.47
2018-03-29T00:44:37.702Z,1.36
2018-03-29T00:45:37.708Z,1.23
2018-03-29T00:46:37.714Z,1.15
2018-03-29T00:47:37.722Z,1.15
2018-03-29T00:48:37.722Z,1.20
2018-03-29T00:49:37.735Z,1.20
2018-03-29T00:50:37.739Z,1.18
2018-03-29T00:51:37.742Z,1.18
2018-03-29T00:52:37.749Z,1.24
2018-03-29T00:53:37.761Z,1.24
2018-03-29T00:54:37.770Z,1.27
2018-03-29T00:55:37.772Z,1.34
2018-03-29T00:56:37.778Z,1.33
2018-03-29T00:57:37.780Z,1.37
2018-03-29T00:58:37.791Z,1.37
2018-03-29T00:59:37.799Z,1.40
2018-03-29T01:00:37.804Z,1.40
2018-03-29T01:01:37.805Z,1.40
2018-03-29T01:02:37.812Z,1.37
2018-03-29T01:03:37.822Z,1.37
2018-03-29T01:04:37.829Z,1.42
2018-03-29T01:05:37.836Z,1.47
2018-03-29T01:06:37.844Z,1.44
2018-03-29T01:07:37.849Z,1.44
2018-03-29T01:08:37.855Z,1.36
2018-03-29T01:09:37.856Z,1.36
2018-03-29T01:10:37.862Z,1.42
2018-03-29T01:11:37.875Z,1.37
2018-03-29T01:12:37.875Z,1.36
2018-03-29T01:13:37.887Z,1.34
2018-03-29T01:14:37.897Z,1.34
2018-03-29T01:15:37.896Z,1.37
2018-03-29T01:16:37.901Z,1.42
2018-03-29T01:17:37.914Z,1.36
2018-03-29T01:18:37.915Z,1.41
2018-03-29T01:19:37.921Z,1.40
2018-03-29T01:20:37.935Z,1.34
2018-03-29T01:21:37.942Z,1.37
2018-03-29T01:22:37.941Z,1.44
2018-03-29T01:23:37.948Z,1.40
2018-03-29T01:24:37.954Z,1.42
2018-03-29T01:25:37.965Z,1.45
2018-03-29T01:26:37.977Z,1.48
2018-03-29T01:27:37.979Z,1.41
2018-03-29T01:28:37.984Z,1.44
2018-03-29T01:29:37.985Z,1.37
2018-03-29T01:30:37.992Z,1.41
2018-03-29T01:31:37.996Z,1.42
2018-03-29T01:32:38.004Z,1.37
2018-03-29T01:33:38.015Z,1.41
2018-03-29T01:34:38.018Z,1.40
2018-03-29T01:35:38.030Z,1.41
2018-03-29T01:36:38.035Z,1.37
2018-03-29T01:37:38.035Z,1.36
2018-03-29T01:38:38.047Z,1.37
2018-03-29T01:39:38.053Z,1.41
2018-03-29T01:40:38.056Z,1.45
2018-03-29T01:41:38.060Z,1.33
2018-03-29T01:42:38.073Z,1.44
2018-03-29T01:43:38.078Z,1.27
2018-03-29T01:44:38.087Z,1.27
2018-03-29T01:45:38.087Z,1.34
2018-03-29T01:46:38.093Z,1.33
2018-03-29T01:47:38.106Z,1.30
2018-03-29T01:48:38.106Z,1.26
2018-03-29T01:49:38.112Z,1.24
2018-03-29T01:50:38.119Z,1.24
2018-03-29T01:51:38.133Z,1.12
2018-03-29T01:52:38.137Z,1.18
2018-03-29T01:53:38.143Z,1.26
2018-03-29T01:54:38.145Z,1.26
2018-03-29T01:55:38.159Z,1.24
2018-03-29T01:56:38.157Z,1.23
2018-03-29T01:57:38.166Z,1.33
2018-03-29T01:58:38.177Z,1.27
2018-03-29T01:59:38.178Z,1.26
2018-03-29T02:00:38.189Z,1.24
2018-03-29T02:01:38.196Z,1.26
2018-03-29T02:02:38.201Z,1.30
2018-03-29T02:03:38.208Z,1.27
2018-03-29T02:04:38.220Z,1.24
2018-03-29T02:05:38.215Z,1.29
2018-03-29T02:06:38.228Z,1.26
2018-03-29T02:07:38.233Z,1.22
2018-03-29T02:08:38.241Z,1.18
2018-03-29T02:09:38.240Z,1.23
2018-03-29T02:10:38.253Z,1.06
2018-03-29T02:11:38.264Z,1.12
2018-03-29T02:12:38.269Z,1.05
2018-03-29T02:13:38.272Z,1.11
2018-03-29T02:14:38.274Z,1.14
2018-03-29T02:15:38.286Z,1.06
2018-03-29T02:16:38.294Z,1.14
2018-03-29T02:17:38.298Z,1.16
2018-03-29T02:18:38.299Z,1.16
2018-03-29T02:19:38.312Z,1.15
2018-03-29T02:20:38.310Z,1.18
2018-03-29T02:21:38.320Z,1.16
2018-03-29T02:22:38.330Z,1.23
2018-03-29T02:23:38.336Z,1.24
2018-03-29T02:24:38.342Z,1.14
2018-03-29T02:25:38.349Z,1.11
2018-03-29T02:26:38.357Z,1.00
2018-03-29T02:27:38.355Z,1.04
2018-03-29T02:28:38.361Z,1.00
2018-03-29T02:29:38.375Z,1.11
2018-03-29T02:30:38.382Z,1.11
2018-03-29T02:31:38.388Z,1.00
2018-03-29T02:32:38.425Z,1.14
2018-03-29T02:33:38.400Z,1.14
2018-03-29T02:34:38.406Z,1.22
2018-03-29T02:35:38.418Z,1.18
2018-03-29T02:36:38.414Z,1.20
2018-03-29T02:37:38.424Z,1.12
2018-03-29T02:38:38.432Z,1.26
2018-03-29T02:39:38.431Z,1.23
2018-03-29T02:40:38.440Z,1.27
2018-03-29T02:41:38.450Z,1.22
2018-03-29T02:42:38.456Z,1.23
2018-03-29T02:43:38.472Z,1.22
2018-03-29T02:44:38.463Z,1.18
2018-03-29T02:45:38.471Z,1.18
2018-03-29T02:46:38.485Z,1.15
2018-03-29T02:47:38.483Z,1.14
2018-03-29T02:48:38.503Z,1.20
2018-03-29T02:49:38.493Z,1.08
2018-03-29T02:50:38.502Z,1.02
2018-03-29T02:51:38.512Z,1.02
2018-03-29T02:52:38.515Z,0.97
2018-03-29T02:53:38.519Z,1.02
2018-03-29T02:54:38.531Z,1.04
2018-03-29T02:55:38.540Z,1.04
2018-03-29T02:56:38.539Z,1.09
2018-03-29T02:57:38.550Z,1.12
2018-03-29T02:58:38.555Z,1.14
2018-03-29T02:59:38.562Z,1.15
2018-03-29T03:00:38.573Z,1.18
2018-03-29T03:01:38.570Z,1.27
2018-03-29T03:02:38.581Z,1.23
2018-03-29T03:03:38.582Z,1.29
2018-03-29T03:04:38.588Z,1.23
2018-03-29T03:05:38.599Z,1.29
2018-03-29T03:06:38.600Z,1.24
2018-03-29T03:07:38.613Z,1.27
2018-03-29T03:08:38.614Z,1.24
2018-03-29T03:09:38.628Z,1.26
2018-03-29T03:10:38.631Z,1.24
2018-03-29T03:11:38.636Z,1.26
2018-03-29T03:12:38.640Z,1.22
2018-03-29T03:13:38.643Z,1.23
2018-03-29T03:14:38.649Z,1.23
2018-03-29T03:15:38.661Z,1.23
2018-03-29T03:16:38.662Z,1.33
2018-03-29T03:17:38.668Z,1.33
2018-03-29T03:18:38.673Z,1.40
2018-03-29T03:19:38.680Z,1.37
2018-03-29T03:20:38.692Z,1.42
2018-03-29T03:21:38.700Z,1.40
2018-03-29T03:22:38.700Z,1.36
2018-03-29T03:23:38.705Z,1.37
2018-03-29T03:24:38.712Z,1.42
2018-03-29T03:25:38.721Z,1.45
2018-03-29T03:26:38.731Z,1.41
2018-03-29T03:27:38.738Z,1.36
2018-03-29T03:28:38.737Z,1.32
2018-03-29T03:29:38.744Z,1.34
2018-03-29T03:30:38.751Z,1.14
2018-03-29T03:31:38.765Z,0.96
2018-03-29T03:32:38.762Z,0.76
2018-03-29T03:33:38.770Z,0.57
2018-03-29T03:34:38.776Z,0.58
2018-03-29T03:35:38.786Z,0.72
2018-03-29T03:36:38.787Z,0.65
2018-03-29T03:37:38.794Z,0.70
2018-03-29T03:38:38.817Z,0.66
2018-03-29T03:39:38.812Z,0.72
2018-03-29T03:40:38.811Z,0.69
2018-03-29T03:41:38.819Z,0.75
2018-03-29T03:42:38.831Z,0.78
2018-03-29T03:43:38.831Z,0.72
2018-03-29T03:44:38.836Z,0.86
2018-03-29T03:45:38.844Z,0.84
2018-03-29T03:46:38.850Z,0.91
2018-03-29T03:47:38.856Z,0.88
2018-03-29T03:48:38.868Z,0.80
2018-03-29T03:49:38.873Z,0.97
2018-03-29T03:50:38.877Z,1.04
2018-03-29T03:51:38.880Z,0.93
2018-03-29T03:52:38.887Z,0.98
2018-03-29T03:53:38.893Z,1.04
2018-03-29T03:54:38.899Z,1.00
2018-03-29T03:55:38.911Z,0.98
2018-03-29T03:56:38.912Z,1.05
2018-03-29T03:57:38.924Z,1.02
2018-03-29T03:58:38.925Z,1.06
2018-03-29T03:59:38.932Z,1.00
2018-03-29T04:00:38.942Z,1.08
2018-03-29T04:01:38.948Z,1.08
2018-03-29T04:02:38.950Z,1.02
2018-03-29T04:03:38.962Z,1.12
2018-03-29T04:04:38.968Z,1.09
2018-03-29T04:05:38.975Z,1.12
2018-03-29T04:06:38.977Z,1.15
2018-03-29T04:07:38.987Z,1.05
2018-03-29T04:08:38.993Z,1.00
2018-03-29T04:09:38.994Z,1.05
2018-03-29T04:10:39.006Z,1.11
2018-03-29T04:11:39.006Z,1.00
2018-03-29T04:12:39.019Z,1.02
2018-03-29T04:13:39.024Z,1.04
2018-03-29T04:14:39.029Z,1.02
2018-03-29T04:15:39.038Z,1.12
2018-03-29T04:16:39.038Z,1.04
2018-03-29T04:17:39.044Z,1.00
2018-03-29T04:18:39.056Z,1.09
2018-03-29T04:19:39.063Z,1.04
2018-03-29T04:20:39.063Z,1.09
2018-03-29T04:21:39.068Z,1.04
2018-03-29T04:22:39.076Z,1.11
2018-03-29T04:23:39.088Z,1.00
2018-03-29T04:24:39.094Z,1.02
2018-03-29T04:25:39.093Z,1.02
2018-03-29T04:26:39.101Z,1.12
2018-03-29T04:27:39.107Z,1.12
2018-03-29T04:28:39.113Z,1.06
2018-03-29T04:29:39.124Z,1.20
2018-03-29T04:30:39.125Z,1.15
2018-03-29T04:31:39.134Z,1.00
2018-03-29T04:32:39.142Z,1.02
2018-03-29T04:33:39.143Z,1.02
2018-03-29T04:34:39.156Z,0.97
2018-03-29T04:35:39.160Z,0.96
2018-03-29T04:36:39.162Z,1.04
2018-03-29T04:37:39.173Z,0.86
2018-03-29T04:38:39.175Z,0.91
2018-03-29T04:39:39.180Z,0.94
2018-03-29T04:40:39.190Z,0.90
2018-03-29T04:41:39.195Z,0.87
2018-03-29T04:42:39.202Z,0.80
2018-03-29T04:43:39.210Z,0.79
2018-03-29T04:44:39.208Z,0.78
2018-03-29T04:45:39.223Z,0.75
2018-03-29T04:46:39.220Z,0.72
2018-03-29T04:47:39.228Z,0.80
2018-03-29T04:48:39.232Z,0.73
2018-03-29T04:49:39.238Z,0.83
2018-03-29T04:50:39.244Z,0.83
2018-03-29T04:51:39.249Z,0.90
2018-03-29T04:52:39.255Z,0.86
2018-03-29T04:53:39.265Z,0.90
2018-03-29T04:54:39.276Z,0.93
2018-03-29T04:55:39.272Z,0.90
2018-03-29T04:56:39.282Z,0.86
2018-03-29T04:57:39.288Z,0.84
2018-03-29T04:58:39.290Z,0.84
2018-03-29T04:59:39.299Z,0.84
2018-03-29T05:00:39.300Z,0.83
2018-03-29T05:01:39.312Z,0.84
2018-03-29T05:02:39.312Z,0.94
2018-03-29T05:03:39.317Z,0.90
2018-03-29T05:04:39.326Z,0.93
2018-03-29T05:05:39.332Z,0.86
2018-03-29T05:06:39.339Z,0.83
2018-03-29T05:07:39.352Z,0.90
2018-03-29T05:08:39.344Z,0.86
2018-03-29T05:09:39.356Z,0.87
2018-03-29T05:10:39.355Z,0.91
2018-03-29T05:11:39.360Z,0.87
2018-03-29T05:12:39.365Z,0.78
2018-03-29T05:13:39.376Z,0.86
2018-03-29T05:14:39.378Z,0.84
2018-03-29T05:15:39.389Z,0.78
2018-03-29T05:16:39.386Z,0.78
2018-03-29T05:17:39.399Z,0.79
2018-03-29T05:18:39.400Z,0.87
2018-03-29T05:19:39.409Z,0.80
2018-03-29T05:20:39.410Z,0.87
2018-03-29T05:21:39.415Z,0.96
2018-03-29T05:22:39.424Z,0.86
2018-03-29T05:23:39.427Z,0.93
2018-03-29T05:24:39.431Z,0.91
2018-03-29T05:25:39.443Z,0.98
2018-03-29T05:26:39.451Z,0.96
2018-03-29T05:27:39.456Z,0.94
2018-03-29T05:28:39.455Z,1.04
2018-03-29T05:29:39.460Z,1.05
2018-03-29T05:30:39.467Z,0.98
2018-03-29T05:31:39.471Z,1.00
2018-03-29T05:32:39.484Z,0.97
2018-03-29T05:33:39.484Z,0.94
2018-03-29T05:34:39.494Z,0.90
2018-03-29T05:35:39.501Z,0.97
2018-03-29T05:36:39.501Z,0.94
2018-03-29T05:37:39.506Z,0.94
2018-03-29T05:38:39.518Z,1.00
2018-03-29T05:39:39.522Z,1.02
2018-03-29T05:40:39.532Z,0.94
2018-03-29T05:41:39.529Z,1.04
2018-03-29T05:42:39.535Z,1.02
2018-03-29T05:43:39.547Z,0.98
2018-03-29T05:44:39.555Z,1.00
2018-03-29T05:45:39.562Z,1.04
2018-03-29T05:46:39.565Z,1.00
2018-03-29T05:47:39.567Z,1.04
2018-03-29T05:48:39.576Z,1.05
2018-03-29T05:49:39.575Z,1.06
2018-03-29T05:50:39.584Z,1.05
2018-03-29T05:51:39.594Z,1.08
2018-03-29T05:52:39.598Z,1.08
2018-03-29T05:53:39.605Z,1.05
2018-03-29T05:54:39.612Z,1.11
2018-03-29T05:55:39.613Z,1.11
2018-03-29T05:56:39.618Z,1.12
2018-03-29T05:57:42.015Z,1.15
2018-03-29T05:58:39.629Z,1.09
2018-03-29T05:59:39.697Z,1.11
2018-03-29T06:00:39.646Z,1.09
2018-03-29T06:01:39.646Z,1.12
2018-03-29T06:02:39.653Z,1.06
2018-03-29T06:03:39.664Z,1.12
2018-03-29T06:04:39.671Z,1.12
2018-03-29T06:05:39.676Z,1.08
2018-03-29T06:06:39.683Z,1.15
2018-03-29T06:07:39.688Z,1.08
2018-03-29T06:08:39.688Z,1.12
2018-03-29T06:09:39.694Z,1.16
2018-03-29T06:10:39.700Z,1.06
2018-03-29T06:11:39.715Z,1.06
2018-03-29T06:12:39.716Z,1.15
2018-03-29T06:13:39.724Z,1.15
2018-03-29T06:14:39.729Z,1.20
2018-03-29T06:15:39.736Z,1.20
2018-03-29T06:16:39.740Z,1.23
2018-03-29T06:17:39.740Z,1.22
2018-03-29T06:18:39.753Z,1.26
2018-03-29T06:19:39.752Z,1.24
2018-03-29T06:20:39.757Z,1.30
2018-03-29T06:21:39.764Z,1.34
2018-03-29T06:22:39.772Z,1.27
2018-03-29T06:23:39.776Z,1.34
2018-03-29T06:24:39.786Z,1.36
2018-03-29T06:25:39.789Z,1.33
2018-03-29T06:26:39.800Z,1.34
2018-03-29T06:27:39.806Z,1.37
2018-03-29T06:28:39.818Z,1.42
2018-03-29T06:29:39.818Z,1.41
2018-03-29T06:30:39.819Z,1.45
2018-03-29T06:31:39.831Z,1.41
2018-03-29T06:32:39.837Z,1.55
2018-03-29T06:33:39.841Z,1.48
2018-03-29T06:34:39.851Z,1.34
2018-03-29T06:35:39.856Z,1.54
2018-03-29T06:36:39.856Z,1.50
2018-03-29T06:37:39.862Z,1.48
2018-03-29T06:38:39.920Z,1.52
2018-03-29T06:39:39.880Z,1.60
2018-03-29T06:40:39.887Z,1.66
2018-03-29T06:41:39.887Z,1.63
2018-03-29T06:42:39.895Z,1.69
2018-03-29T06:43:39.905Z,1.77
2018-03-29T06:44:39.907Z,1.80
2018-03-29T06:45:39.914Z,1.77
2018-03-29T06:46:39.919Z,1.93
2018-03-29T06:47:39.925Z,1.86
2018-03-29T06:48:39.938Z,2.00
2018-03-29T06:49:39.938Z,2.07
2018-03-29T06:50:39.944Z,2.03
2018-03-29T06:51:39.956Z,2.17
2018-03-29T06:52:39.962Z,2.10
2018-03-29T06:53:39.970Z,2.21
2018-03-29T06:54:39.977Z,2.23
2018-03-29T06:55:39.984Z,2.24
2018-03-29T06:56:39.982Z,2.23
2018-03-29T06:57:39.990Z,2.10
2018-03-29T06:58:40.004Z,2.16
2018-03-29T06:59:40.010Z,2.14
2018-03-29T07:00:40.016Z,2.18
2018-03-29T07:01:40.022Z,2.21
2018-03-29T07:02:40.030Z,2.20
2018-03-29T07:03:40.036Z,2.27
2018-03-29T07:04:40.041Z,2.38
2018-03-29T07:05:40.049Z,2.39
2018-03-29T07:06:40.050Z,2.54
2018-03-29T07:07:40.058Z,2.57
2018-03-29T07:08:40.069Z,2.59
2018-03-29T07:09:40.076Z,2.46
2018-03-29T07:10:40.078Z,2.38
2018-03-29T07:11:40.084Z,2.43
2018-03-29T07:12:40.097Z,2.41
2018-03-29T07:13:40.102Z,2.35
2018-03-29T07:14:40.105Z,2.25
2018-03-29T07:15:40.118Z,2.17
2018-03-29T07:16:40.125Z,1.95
2018-03-29T07:17:40.126Z,1.93
2018-03-29T07:18:40.138Z,1.84
2018-03-29T07:19:40.139Z,2.00
2018-03-29T07:20:40.146Z,1.87
2018-03-29T07:21:40.158Z,1.86
2018-03-29T07:22:40.165Z,1.99
2018-03-29T07:23:40.174Z,2.09
2018-03-29T07:24:40.172Z,2.16
2018-03-29T07:25:40.180Z,2.17
2018-03-29T07:26:40.191Z,2.17
2018-03-29T07:27:40.198Z,2.18
2018-03-29T07:28:40.203Z,2.18
2018-03-29T07:29:40.210Z,2.21
2018-03-29T07:30:40.213Z,2.31
2018-03-29T07:31:40.224Z,2.46
2018-03-29T07:32:40.229Z,2.57
2018-03-29T07:33:40.234Z,2.52
2018-03-29T07:34:40.240Z,2.63
2018-03-29T07:35:40.253Z,2.66
2018-03-29T07:36:40.253Z,2.78
2018-03-29T07:37:40.264Z,2.63
2018-03-29T07:38:40.273Z,2.63
2018-03-29T07:39:40.288Z,2.64
2018-03-29T07:40:40.282Z,2.57
2018-03-29T07:41:40.287Z,2.56
2018-03-29T07:42:40.301Z,2.56
2018-03-29T07:43:40.308Z,2.74
2018-03-29T07:44:40.317Z,2.93
2018-03-29T07:45:40.318Z,2.89
2018-03-29T07:46:40.329Z,2.87
2018-03-29T07:47:40.331Z,2.90
2018-03-29T07:48:40.345Z,2.77
2018-03-29T07:49:40.345Z,2.77
2018-03-29T07:50:40.360Z,2.75
2018-03-29T07:51:40.360Z,2.69
2018-03-29T07:52:40.368Z,2.67
2018-03-29T07:53:40.382Z,2.42
2018-03-29T07:54:40.389Z,2.42
2018-03-29T07:55:40.389Z,2.36
2018-03-29T07:56:40.402Z,2.30
2018-03-29T07:57:40.403Z,2.38
2018-03-29T07:58:40.410Z,2.45
2018-03-29T07:59:40.419Z,2.59
2018-03-29T08:00:40.431Z,2.74
2018-03-29T08:01:40.438Z,2.92
2018-03-29T08:02:40.445Z,3.06
2018-03-29T08:03:40.453Z,3.06
2018-03-29T08:04:40.456Z,3.08
2018-03-29T08:05:40.469Z,3.13
2018-03-29T08:06:40.471Z,3.06
2018-03-29T08:07:40.483Z,3.17
2018-03-29T08:08:40.484Z,3.26
2018-03-29T08:09:40.492Z,3.05
2018-03-29T08:10:40.506Z,3.05
2018-03-29T08:11:40.517Z,2.93
2018-03-29T08:12:40.516Z,2.81
2018-03-29T08:13:40.528Z,2.67
2018-03-29T08:14:40.531Z,2.60
2018-03-29T08:15:40.542Z,2.56
2018-03-29T08:16:40.546Z,2.64
2018-03-29T08:17:40.560Z,2.75
2018-03-29T08:18:40.567Z,2.92
2018-03-29T08:19:40.568Z,3.08
2018-03-29T08:20:40.580Z,3.10
2018-03-29T08:21:40.588Z,3.24
2018-03-29T08:22:40.596Z,3.29
2018-03-29T08:23:40.620Z,3.39
2018-03-29T08:24:40.612Z,3.21
2018-03-29T08:25:40.615Z,3.32
2018-03-29T08:26:40.623Z,3.28
2018-03-29T08:27:40.630Z,3.45
2018-03-29T08:28:40.638Z,3.40
2018-03-29T08:29:40.655Z,3.23
2018-03-29T08:30:40.661Z,2.87
2018-03-29T08:31:40.663Z,2.72
2018-03-29T08:32:40.675Z,2.82
2018-03-29T08:33:40.678Z,2.75
2018-03-29T08:34:40.689Z,3.05
2018-03-29T08:35:40.699Z,3.02
2018-03-29T08:36:40.707Z,3.10
2018-03-29T08:37:40.710Z,3.33
2018-03-29T08:38:40.722Z,3.28
2018-03-29T08:39:40.725Z,3.33
2018-03-29T08:40:40.739Z,3.57
2018-03-29T08:41:40.747Z,3.57
2018-03-29T08:42:40.750Z,3.55
2018-03-29T08:43:40.760Z,3.62
2018-03-29T08:44:40.771Z,3.76
2018-03-29T08:45:40.781Z,3.65
2018-03-29T08:46:40.788Z,3.68
2018-03-29T08:47:40.789Z,3.83
2018-03-29T08:48:40.796Z,3.79
2018-03-29T08:49:40.805Z,3.84
2018-03-29T08:50:40.815Z,3.98
2018-03-29T08:51:40.830Z,3.98
2018-03-29T08:52:40.829Z,4.12
2018-03-29T08:53:40.838Z,4.29
2018-03-29T08:54:40.852Z,4.24
2018-03-29T08:55:40.861Z,4.24
2018-03-29T08:56:40.863Z,4.29
2018-03-29T08:57:40.877Z,4.24
2018-03-29T08:58:40.885Z,4.33
2018-03-29T08:59:40.893Z,4.44
2018-03-29T09:00:40.903Z,4.50
2018-03-29T09:01:40.907Z,3.96
2018-03-29T09:02:40.915Z,4.04
2018-03-29T09:03:40.931Z,4.08
2018-03-29T09:04:40.936Z,4.09
2018-03-29T09:05:40.945Z,4.12
2018-03-29T09:06:40.949Z,4.24
2018-03-29T09:07:40.964Z,4.32
2018-03-29T09:08:40.972Z,4.45
2018-03-29T09:09:40.980Z,4.62
2018-03-29T09:10:40.990Z,4.59
2018-03-29T09:11:40.993Z,4.66
2018-03-29T09:12:41.001Z,4.66
2018-03-29T09:13:41.010Z,4.27
2018-03-29T09:14:41.020Z,4.22
2018-03-29T09:15:41.035Z,4.27
2018-03-29T09:16:41.044Z,4.48
2018-03-29T09:17:41.047Z,4.15
2018-03-29T09:18:41.061Z,3.83
2018-03-29T09:19:41.065Z,3.45
2018-03-29T09:20:41.073Z,3.20
2018-03-29T09:21:41.083Z,3.52
2018-03-29T09:22:41.098Z,3.83
2018-03-29T09:23:41.107Z,4.16
2018-03-29T09:24:41.115Z,4.24
2018-03-29T09:25:41.122Z,4.37
2018-03-29T09:26:41.134Z,4.26
2018-03-29T09:27:41.142Z,4.60
2018-03-29T09:28:41.145Z,4.75
2018-03-29T09:29:41.164Z,4.82
2018-03-29T09:30:41.172Z,4.99
2018-03-29T09:31:41.173Z,4.92
2018-03-29T09:32:41.183Z,4.88
2018-03-29T09:33:41.194Z,4.40
2018-03-29T09:34:41.207Z,3.68
2018-03-29T09:35:41.246Z,3.39
2018-03-29T09:36:41.225Z,3.57
2018-03-29T09:37:41.227Z,3.62
2018-03-29T09:38:41.243Z,3.86
2018-03-29T09:39:41.255Z,4.02
2018-03-29T09:40:41.263Z,3.97
2018-03-29T09:41:41.264Z,4.04
2018-03-29T09:42:41.280Z,4.24
2018-03-29T09:43:41.284Z,3.87
2018-03-29T09:44:41.293Z,3.54
2018-03-29T09:45:41.302Z,3.60
2018-03-29T09:46:41.311Z,3.52
2018-03-29T09:47:41.319Z,3.52
2018-03-29T09:48:41.338Z,3.50
2018-03-29T09:49:41.336Z,3.51
2018-03-29T09:50:41.349Z,3.35
2018-03-29T09:51:41.358Z,3.29
2018-03-29T09:52:41.365Z,3.23
2018-03-29T09:53:41.373Z,3.33
2018-03-29T09:54:41.392Z,3.55
2018-03-29T09:55:41.391Z,3.72
2018-03-29T09:56:41.402Z,3.98
2018-03-29T09:57:41.415Z,4.20
2018-03-29T09:58:41.420Z,4.37
2018-03-29T09:59:41.427Z,4.34
2018-03-29T10:00:41.437Z,4.30
2018-03-29T10:01:41.444Z,4.41
2018-03-29T10:02:41.461Z,4.37
2018-03-29T10:03:41.464Z,4.40
2018-03-29T10:04:41.478Z,4.32
2018-03-29T10:05:41.483Z,4.41
2018-03-29T10:06:41.496Z,4.52
2018-03-29T10:07:41.498Z,4.85
2018-03-29T10:08:41.513Z,5.04
2018-03-29T10:09:41.523Z,5.57
2018-03-29T10:10:41.532Z,5.76
2018-03-29T10:11:41.535Z,6.18
2018-03-29T10:12:41.547Z,6.55
2018-03-29T10:13:41.554Z,6.81
2018-03-29T10:14:41.565Z,7.30
2018-03-29T10:15:41.577Z,7.17
2018-03-29T10:16:41.583Z,7.25
2018-03-29T10:17:41.598Z,7.49
2018-03-29T10:18:41.614Z,7.10
2018-03-29T10:19:41.615Z,6.99
2018-03-29T10:20:41.629Z,6.22
2018-03-29T10:21:41.640Z,6.18
2018-03-29T10:22:41.647Z,6.03
2018-03-29T10:23:41.664Z,6.09
2018-03-29T10:24:41.667Z,5.83
2018-03-29T10:25:41.677Z,6.04
2018-03-29T10:26:41.693Z,6.54
2018-03-29T10:27:41.704Z,6.36
2018-03-29T10:28:41.714Z,6.30
2018-03-29T10:29:41.719Z,6.62
2018-03-29T10:30:41.734Z,7.13
2018-03-29T10:31:41.742Z,6.79
2018-03-29T10:32:41.756Z,6.67
2018-03-29T10:33:41.767Z,6.00
2018-03-29T10:34:41.774Z,5.51
2018-03-29T10:35:41.832Z,5.64
2018-03-29T10:36:41.802Z,5.31
2018-03-29T10:37:41.811Z,5.38
2018-03-29T10:38:41.822Z,5.74
2018-03-29T10:39:41.829Z,5.39
2018-03-29T10:40:41.843Z,5.18
2018-03-29T10:41:41.856Z,5.67
2018-03-29T10:42:41.861Z,6.19
2018-03-29T10:43:41.878Z,6.37
2018-03-29T10:44:41.885Z,6.49
2018-03-29T10:45:41.892Z,6.64
2018-03-29T10:46:41.912Z,6.73
2018-03-29T10:47:41.922Z,6.77
2018-03-29T10:48:41.928Z,6.80
2018-03-29T10:49:41.939Z,6.79
2018-03-29T10:50:41.963Z,6.79
2018-03-29T10:51:41.966Z,6.85
2018-03-29T10:52:41.976Z,5.93
2018-03-29T10:53:41.982Z,5.83
2018-03-29T10:54:42.003Z,5.25
2018-03-29T10:55:42.012Z,5.39
2018-03-29T10:56:42.022Z,5.13
2018-03-29T10:57:42.027Z,5.00
2018-03-29T10:58:42.039Z,5.27
2018-03-29T10:59:42.050Z,5.54
2018-03-29T11:00:42.066Z,5.53
2018-03-29T11:01:42.080Z,5.64
2018-03-29T11:02:42.082Z,5.72
2018-03-29T11:03:42.099Z,5.53
2018-03-29T11:04:42.101Z,4.55
2018-03-29T11:05:42.121Z,4.84
2018-03-29T11:06:42.127Z,4.77
2018-03-29T11:07:42.139Z,5.04
2018-03-29T11:08:42.152Z,5.30
2018-03-29T11:09:42.162Z,5.45
2018-03-29T11:10:42.173Z,5.68
2018-03-29T11:11:42.179Z,5.79
2018-03-29T11:12:42.195Z,5.82
2018-03-29T11:13:42.199Z,5.89
2018-03-29T11:14:42.208Z,6.00
2018-03-29T11:15:42.220Z,6.48
2018-03-29T11:16:42.230Z,6.58
2018-03-29T11:17:42.243Z,6.30
2018-03-29T11:18:42.255Z,6.22
2018-03-29T11:19:42.268Z,6.40
2018-03-29T11:20:42.284Z,6.55
2018-03-29T11:21:42.283Z,6.56
2018-03-29T11:22:42.297Z,6.38
2018-03-29T11:23:42.315Z,5.97
2018-03-29T11:24:42.322Z,6.04
2018-03-29T11:25:42.333Z,5.68
2018-03-29T11:26:42.346Z,5.48
2018-03-29T11:27:42.355Z,5.54
2018-03-29T11:28:42.370Z,5.63
2018-03-29T11:29:42.371Z,6.27
2018-03-29T11:30:42.382Z,6.89
2018-03-29T11:31:42.399Z,6.81
2018-03-29T11:32:42.406Z,6.67
2018-03-29T11:33:42.421Z,6.62
2018-03-29T11:34:42.434Z,7.27
2018-03-29T11:35:42.436Z,7.31
2018-03-29T11:36:42.448Z,7.46
2018-03-29T11:37:42.465Z,7.32
2018-03-29T11:38:42.472Z,7.23
2018-03-29T11:39:42.483Z,6.98
2018-03-29T11:40:42.499Z,6.97
2018-03-29T11:41:42.506Z,6.97
2018-03-29T11:42:42.527Z,7.17
2018-03-29T11:43:42.531Z,7.80
2018-03-29T11:44:42.544Z,7.35
2018-03-29T11:45:42.552Z,7.09
2018-03-29T11:46:42.568Z,7.23
2018-03-29T11:47:42.581Z,7.21
2018-03-29T11:48:42.593Z,7.31
2018-03-29T11:49:42.600Z,7.48
2018-03-29T11:50:42.616Z,7.28
2018-03-29T11:51:42.622Z,7.17
2018-03-29T11:52:42.635Z,6.80
2018-03-29T11:53:42.646Z,6.88
2018-03-29T11:54:42.670Z,7.07
2018-03-29T11:55:42.676Z,7.35
2018-03-29T11:56:42.686Z,7.79
2018-03-29T11:57:42.699Z,7.93
2018-03-29T11:58:42.706Z,7.92
2018-03-29T11:59:42.716Z,8.15
2018-03-29T12:00:42.736Z,8.19
2018-03-29T12:01:42.746Z,8.12
2018-03-29T12:02:42.754Z,8.16
2018-03-29T12:03:42.771Z,8.15
2018-03-29T12:04:42.782Z,7.57
2018-03-29T12:05:42.795Z,7.27
2018-03-29T12:06:42.808Z,6.97
2018-03-29T12:07:42.818Z,6.43
2018-03-29T12:08:42.830Z,6.79
2018-03-29T12:09:42.843Z,7.10
2018-03-29T12:10:42.857Z,7.60
2018-03-29T12:11:42.867Z,7.61
2018-03-29T12:12:42.873Z,8.04
2018-03-29T12:13:42.885Z,7.53
2018-03-29T12:14:42.901Z,7.37
2018-03-29T12:15:42.912Z,7.43
2018-03-29T12:16:42.993Z,7.28
2018-03-29T12:17:42.941Z,7.10
2018-03-29T12:18:42.948Z,7.77
2018-03-29T12:19:42.963Z,8.50
2018-03-29T12:20:42.972Z,8.76
2018-03-29T12:21:42.989Z,8.99
2018-03-29T12:22:43.001Z,9.33
2018-03-29T12:23:43.015Z,9.81
2018-03-29T12:24:43.020Z,8.66
2018-03-29T12:25:43.034Z,9.13
2018-03-29T12:26:43.046Z,9.01
2018-03-29T12:27:43.059Z,8.56
2018-03-29T12:28:43.075Z,7.92
2018-03-29T12:29:43.085Z,8.59
2018-03-29T12:30:43.103Z,8.65
2018-03-29T12:31:43.110Z,8.36
2018-03-29T12:32:43.122Z,7.83
2018-03-29T12:33:43.134Z,8.10
2018-03-29T12:34:43.153Z,7.92
2018-03-29T12:35:43.161Z,8.12
2018-03-29T12:36:43.178Z,8.23
2018-03-29T12:37:43.188Z,8.86
2018-03-29T12:38:43.206Z,8.74
2018-03-29T12:39:43.220Z,8.34
2018-03-29T12:40:43.230Z,7.77
2018-03-29T12:41:43.245Z,7.58
2018-03-29T12:42:43.258Z,7.13
2018-03-29T12:43:43.272Z,7.77
2018-03-29T12:44:43.280Z,8.53
2018-03-29T12:45:43.297Z,8.28
2018-03-29T12:46:43.304Z,8.25
2018-03-29T12:47:43.323Z,8.10
2018-03-29T12:48:43.333Z,6.89
2018-03-29T12:49:43.343Z,7.13
2018-03-29T12:50:43.355Z,6.55
2018-03-29T12:51:43.375Z,6.34
2018-03-29T12:52:43.387Z,5.99
2018-03-29T12:53:43.401Z,6.09
2018-03-29T12:54:43.413Z,6.34
2018-03-29T12:55:43.469Z,6.00
2018-03-29T12:56:43.437Z,5.81
2018-03-29T12:57:43.446Z,5.99
2018-03-29T12:58:43.463Z,6.28
2018-03-29T12:59:43.470Z,6.84
2018-03-29T13:00:43.481Z,7.15
2018-03-29T13:01:43.493Z,7.25
2018-03-29T13:02:43.506Z,7.32
2018-03-29T13:03:43.526Z,7.57
2018-03-29T13:04:43.531Z,8.02
2018-03-29T13:05:43.544Z,8.28
2018-03-29T13:06:43.561Z,8.44
2018-03-29T13:07:43.569Z,8.81
2018-03-29T13:08:43.591Z,8.84
2018-03-29T13:09:43.596Z,8.41
2018-03-29T13:10:43.604Z,7.48
2018-03-29T13:11:43.677Z,7.37
2018-03-29T13:12:43.630Z,7.32
2018-03-29T13:13:43.645Z,6.49
2018-03-29T13:14:43.656Z,6.55
2018-03-29T13:15:43.673Z,6.85
2018-03-29T13:16:43.680Z,6.62
2018-03-29T13:17:43.693Z,6.79
2018-03-29T13:18:43.752Z,7.12